Terminal Aerodrome Forecast
Issued by NWS

Home | Current Version | Previous Version | Graphics & Text | Print | Product List | Glossary On
Versions: 1 2 3 4 5 6 7 8 9 10 11 12 13 14 15 16 17 18 19 20
000
FTUS43 KBIS 261520 AAB
TAFDIK
TAF AMD
KDIK 261520Z 2615/2712 29022G30KT P6SM BKN035
     FM261800 30020G28KT P6SM SCT050
     FM270100 29013KT P6SM SCT080
     FM270300 29006KT P6SM FEW070 FEW200=

USA.gov is the U.S. government's official web portal to all federal, state and local government web resources and services.